createdAt,value
2019-02-22T00:00:09.761Z,14.05
2019-02-22T00:02:36.012Z,13.62
2019-02-22T00:05:02.333Z,14.01
2019-02-22T00:07:28.500Z,13.88
2019-02-22T00:09:54.770Z,14.02
2019-02-22T00:12:21.107Z,13.84
2019-02-22T00:14:47.272Z,14.41
2019-02-22T00:17:13.434Z,14.15
2019-02-22T00:19:39.741Z,13.96
2019-02-22T00:22:05.900Z,13.80
2019-02-22T00:24:32.059Z,14.00
2019-02-22T00:26:58.254Z,14.36
2019-02-22T00:29:24.562Z,14.55
2019-02-22T00:31:50.824Z,13.81
2019-02-22T00:34:17.018Z,13.88
2019-02-22T00:36:43.416Z,13.71
2019-02-22T00:39:09.897Z,13.73
2019-02-22T00:41:36.186Z,13.97
2019-02-22T00:44:02.751Z,13.76
2019-02-22T00:46:29.023Z,13.72
2019-02-22T00:48:55.220Z,13.63
2019-02-22T00:51:21.478Z,13.70
2019-02-22T00:53:47.640Z,13.12
2019-02-22T00:56:13.934Z,13.48
2019-02-22T00:58:40.211Z,13.05
2019-02-22T01:01:06.377Z,13.73
2019-02-22T01:03:32.592Z,13.30
2019-02-22T01:05:58.846Z,13.06
2019-02-22T01:08:25.012Z,13.87
2019-02-22T01:10:51.311Z,13.54
2019-02-22T01:13:17.493Z,13.53
2019-02-22T01:15:43.679Z,13.70
2019-02-22T01:18:09.988Z,13.49
2019-02-22T01:20:36.146Z,14.10
2019-02-22T01:23:02.349Z,13.69
2019-02-22T01:25:28.659Z,13.81
2019-02-22T01:27:54.925Z,13.85
2019-02-22T01:30:21.149Z,13.56
2019-02-22T01:32:47.444Z,13.53
2019-02-22T01:35:13.595Z,13.57
2019-02-22T01:37:39.785Z,13.56
2019-02-22T01:40:08.482Z,13.55
2019-02-22T01:42:34.754Z,13.72
2019-02-22T01:45:00.900Z,13.74
2019-02-22T01:47:27.096Z,13.70
2019-02-22T01:49:53.349Z,13.43
2019-02-22T01:52:19.537Z,13.65
2019-02-22T01:54:45.711Z,13.64
2019-02-22T01:57:11.978Z,13.67
2019-02-22T01:59:38.238Z,13.09
2019-02-22T02:02:04.441Z,13.49
2019-02-22T02:04:31.082Z,13.14
2019-02-22T02:06:57.348Z,13.70
2019-02-22T02:09:23.540Z,13.68
2019-02-22T02:11:49.700Z,13.57
2019-02-22T02:14:15.857Z,13.40
2019-02-22T02:16:42.049Z,13.56
2019-02-22T02:19:08.215Z,13.74
2019-02-22T02:21:34.471Z,13.82
2019-02-22T02:24:00.789Z,13.96
2019-02-22T02:26:26.936Z,13.63
2019-02-22T02:28:53.210Z,14.02
2019-02-22T02:31:19.638Z,14.04
2019-02-22T02:33:45.804Z,13.44
2019-02-22T02:36:11.963Z,13.70
2019-02-22T02:38:38.162Z,13.18
2019-02-22T02:41:09.980Z,13.92
2019-02-22T02:43:32.494Z,13.38
2019-02-22T02:45:58.711Z,13.69
2019-02-22T02:48:24.973Z,13.78
2019-02-22T02:50:51.141Z,13.59
2019-02-22T02:53:17.331Z,13.37
2019-02-22T02:55:43.500Z,13.41
2019-02-22T02:58:09.668Z,13.58
2019-02-22T03:00:35.955Z,13.75
2019-02-22T03:03:02.120Z,13.49
2019-02-22T03:05:48.137Z,13.41
2019-02-22T03:08:14.412Z,13.27
2019-02-22T03:10:40.577Z,13.41
2019-02-22T03:13:06.777Z,12.84
2019-02-22T03:15:33.036Z,12.54
2019-02-22T03:17:59.298Z,12.79
2019-02-22T03:20:25.488Z,12.53
2019-02-22T03:22:51.641Z,13.15
2019-02-22T03:25:17.911Z,12.55
2019-02-22T03:27:44.102Z,13.14
2019-02-22T03:30:10.487Z,12.85
2019-02-22T03:32:37.704Z,13.20
2019-02-22T03:35:04.992Z,12.86
2019-02-22T03:37:31.152Z,13.07
2019-02-22T03:39:57.418Z,12.95
2019-02-22T03:42:23.715Z,13.20
2019-02-22T03:44:50.194Z,13.05
2019-02-22T03:47:17.539Z,13.37
2019-02-22T03:49:45.670Z,12.88
2019-02-22T03:52:28.824Z,12.68
2019-02-22T03:54:55.021Z,12.97
2019-02-22T03:57:21.287Z,13.53
2019-02-22T03:59:47.536Z,12.86
2019-02-22T04:02:13.827Z,13.32
2019-02-22T04:04:39.983Z,13.51
2019-02-22T04:07:06.161Z,13.29
2019-02-22T04:09:32.446Z,13.05
2019-02-22T04:11:58.718Z,12.82
2019-02-22T04:14:24.995Z,13.43
2019-02-22T04:16:51.164Z,13.09
2019-02-22T04:19:17.425Z,13.54
2019-02-22T04:21:43.581Z,13.25
2019-02-22T04:24:09.882Z,13.19
2019-02-22T04:26:36.046Z,13.12
2019-02-22T04:29:02.201Z,12.97
2019-02-22T04:31:28.501Z,13.11
2019-02-22T04:33:54.658Z,13.02
2019-02-22T04:36:20.942Z,13.24
2019-02-22T04:38:47.228Z,13.22
2019-02-22T04:41:13.403Z,12.98
2019-02-22T04:43:39.657Z,13.27
2019-02-22T04:46:05.843Z,13.45
2019-02-22T04:48:32.117Z,13.52
2019-02-22T04:50:58.307Z,13.10
2019-02-22T04:53:24.499Z,13.25
2019-02-22T04:55:50.663Z,13.28
2019-02-22T04:58:16.944Z,13.30
2019-02-22T05:00:43.229Z,13.87
2019-02-22T05:03:09.388Z,13.94
2019-02-22T05:05:35.864Z,14.40
2019-02-22T05:08:02.197Z,13.74
2019-02-22T05:10:28.356Z,13.74
2019-02-22T05:12:54.660Z,13.84
2019-02-22T05:15:20.867Z,13.98
2019-02-22T05:17:47.199Z,14.23
2019-02-22T05:20:13.448Z,14.03
2019-02-22T05:22:39.847Z,14.17
2019-02-22T05:25:06.009Z,14.35
2019-02-22T05:27:32.278Z,14.75
2019-02-22T05:29:58.471Z,14.32
2019-02-22T05:32:24.642Z,14.67
2019-02-22T05:34:51.708Z,14.81
2019-02-22T05:37:17.905Z,14.90
2019-02-22T05:39:44.071Z,14.38
2019-02-22T05:42:22.038Z,15.50
2019-02-22T05:44:38.430Z,15.42
2019-02-22T05:47:05.495Z,15.31
2019-02-22T05:49:32.162Z,15.38
2019-02-22T05:51:58.517Z,15.56
2019-02-22T05:54:24.679Z,15.82
2019-02-22T05:56:50.843Z,16.25
2019-02-22T05:59:17.060Z,16.07
2019-02-22T06:01:43.327Z,16.49
2019-02-22T06:04:09.478Z,16.56
2019-02-22T06:06:35.664Z,17.35
2019-02-22T06:09:01.934Z,17.49
2019-02-22T06:11:28.094Z,17.97
2019-02-22T06:13:54.331Z,17.85
2019-02-22T06:16:20.497Z,18.20
2019-02-22T06:18:46.781Z,18.59
2019-02-22T06:21:15.278Z,18.71
2019-02-22T06:23:41.258Z,18.93
2019-02-22T06:26:07.529Z,18.51
2019-02-22T06:28:33.777Z,18.60
2019-02-22T06:30:59.948Z,18.82
2019-02-22T06:33:26.218Z,18.98
2019-02-22T06:35:52.482Z,19.69
2019-02-22T06:38:18.753Z,18.35
2019-02-22T06:40:47.971Z,17.87
2019-02-22T06:43:13.138Z,18.93
2019-02-22T06:45:39.331Z,19.15
2019-02-22T06:48:05.497Z,18.95
2019-02-22T06:50:33.996Z,18.73
2019-02-22T06:52:59.977Z,18.38
2019-02-22T06:55:26.158Z,18.90
2019-02-22T06:57:52.355Z,19.02
2019-02-22T07:00:18.532Z,18.95
2019-02-22T07:02:44.803Z,18.56
2019-02-22T07:05:11.000Z,19.16
2019-02-22T07:07:37.164Z,19.11
2019-02-22T07:10:06.941Z,18.89
2019-02-22T07:12:35.054Z,19.52
2019-02-22T07:15:01.327Z,19.18
2019-02-22T07:17:27.489Z,19.43
2019-02-22T07:19:53.809Z,19.24
2019-02-22T07:22:19.984Z,19.12
2019-02-22T07:24:46.272Z,18.90
2019-02-22T07:27:12.479Z,19.23
2019-02-22T07:29:38.638Z,18.20
2019-02-22T07:32:06.195Z,18.76
2019-02-22T07:34:32.915Z,18.71
2019-02-22T07:36:59.099Z,19.78
2019-02-22T07:39:28.161Z,19.55
2019-02-22T07:41:53.464Z,19.57
2019-02-22T07:44:19.642Z,20.23
2019-02-22T07:46:45.917Z,19.61
2019-02-22T07:49:21.234Z,20.03
2019-02-22T07:51:47.511Z,19.89
2019-02-22T07:54:13.818Z,20.78
2019-02-22T07:56:40.117Z,21.15
2019-02-22T07:59:06.282Z,20.10
2019-02-22T08:01:32.450Z,19.89
2019-02-22T08:03:58.750Z,19.34
2019-02-22T08:06:25.187Z,19.94
2019-02-22T08:08:51.358Z,20.55
2019-02-22T08:11:17.570Z,19.74
2019-02-22T08:13:43.732Z,19.83
2019-02-22T08:16:09.912Z,20.50
2019-02-22T08:18:36.125Z,20.35
2019-02-22T08:21:02.393Z,18.89
2019-02-22T08:23:28.565Z,19.84
2019-02-22T08:25:54.769Z,20.63
2019-02-22T08:28:21.041Z,20.69
2019-02-22T08:30:47.236Z,19.45
2019-02-22T08:33:13.495Z,20.03
2019-02-22T08:35:39.562Z,19.41
2019-02-22T08:38:05.836Z,19.57
2019-02-22T08:40:32.163Z,19.72
2019-02-22T08:42:58.342Z,19.74
2019-02-22T08:45:24.509Z,19.28
2019-02-22T08:47:50.726Z,20.15
2019-02-22T08:50:17.019Z,20.17
2019-02-22T08:52:43.288Z,20.35
2019-02-22T08:55:09.602Z,19.93
2019-02-22T08:57:35.773Z,19.93
2019-02-22T09:00:02.962Z,20.77
2019-02-22T09:02:29.287Z,19.29
2019-02-22T09:04:55.450Z,20.62
2019-02-22T09:07:21.639Z,19.19
2019-02-22T09:09:48.073Z,19.02
2019-02-22T09:12:14.236Z,19.31
2019-02-22T09:14:40.417Z,19.11
2019-02-22T09:17:06.722Z,19.41
2019-02-22T09:19:33.871Z,19.46
2019-02-22T09:22:00.035Z,18.63
2019-02-22T09:24:26.351Z,19.19
2019-02-22T09:26:52.524Z,19.51
2019-02-22T09:29:18.817Z,18.94
2019-02-22T09:31:45.019Z,19.72
2019-02-22T09:34:11.215Z,18.43
2019-02-22T09:36:37.443Z,18.37
2019-02-22T09:39:04.983Z,18.98
2019-02-22T09:41:31.247Z,19.00
2019-02-22T09:43:57.413Z,19.14
2019-02-22T09:46:23.620Z,18.81
2019-02-22T09:48:49.811Z,18.19
2019-02-22T09:51:16.163Z,18.50
2019-02-22T09:53:42.822Z,18.07
2019-02-22T09:56:09.132Z,17.84
2019-02-22T09:58:35.295Z,18.72
2019-02-22T10:01:01.516Z,19.49
2019-02-22T10:03:27.683Z,18.43
2019-02-22T10:05:53.952Z,19.06
2019-02-22T10:08:20.257Z,18.46
2019-02-22T10:10:46.414Z,18.10
2019-02-22T10:13:12.685Z,16.92
2019-02-22T10:15:38.992Z,18.02
2019-02-22T10:18:05.162Z,17.69
2019-02-22T10:20:31.326Z,17.69
2019-02-22T10:22:57.635Z,16.40
2019-02-22T10:25:23.810Z,17.64
2019-02-22T10:27:49.978Z,17.04
2019-02-22T10:30:16.275Z,17.53
2019-02-22T10:32:42.552Z,16.71
2019-02-22T10:35:08.823Z,17.01
2019-02-22T10:37:35.017Z,16.77
2019-02-22T10:40:01.337Z,17.50
2019-02-22T10:42:27.559Z,17.27
2019-02-22T10:44:53.856Z,16.30
2019-02-22T10:47:20.159Z,16.64
2019-02-22T10:49:46.470Z,16.58
2019-02-22T10:52:14.475Z,17.37
2019-02-22T10:54:40.646Z,16.72
2019-02-22T10:57:06.914Z,16.68
2019-02-22T10:59:33.191Z,16.48
2019-02-22T11:01:59.409Z,17.33
2019-02-22T11:04:27.427Z,16.72
2019-02-22T11:06:53.963Z,17.62
2019-02-22T11:09:20.240Z,16.43
2019-02-22T11:11:46.409Z,17.62
2019-02-22T11:14:12.629Z,17.09
2019-02-22T11:16:38.887Z,16.47
2019-02-22T11:19:05.062Z,16.77
2019-02-22T11:21:31.262Z,17.23
2019-02-22T11:23:57.426Z,17.54
2019-02-22T11:26:23.593Z,18.11
2019-02-22T11:28:49.803Z,18.26
2019-02-22T11:31:17.328Z,17.58
2019-02-22T11:33:43.853Z,17.03
2019-02-22T11:36:10.037Z,16.60
2019-02-22T11:38:36.188Z,17.21
2019-02-22T11:41:02.361Z,16.45
2019-02-22T11:43:28.712Z,16.55
2019-02-22T11:45:54.932Z,17.22
2019-02-22T11:48:21.131Z,17.62
2019-02-22T11:50:47.329Z,17.67
2019-02-22T11:53:13.479Z,17.54
2019-02-22T11:55:41.447Z,16.83
2019-02-22T11:58:07.756Z,16.06
2019-02-22T12:00:34.232Z,16.29
2019-02-22T12:03:12.178Z,17.44
2019-02-22T12:05:28.482Z,17.02
2019-02-22T12:07:54.646Z,16.57
2019-02-22T12:10:20.828Z,16.55
2019-02-22T12:12:47.027Z,16.76
2019-02-22T12:15:13.398Z,16.66
2019-02-22T12:17:39.544Z,16.60
2019-02-22T12:20:07.741Z,17.18
2019-02-22T12:22:33.897Z,16.78
2019-02-22T12:25:00.056Z,16.12
2019-02-22T12:27:26.269Z,16.40
2019-02-22T12:29:52.452Z,16.83
2019-02-22T12:32:18.602Z,16.16
2019-02-22T12:34:44.713Z,16.23
2019-02-22T12:37:10.776Z,17.25
2019-02-22T12:39:36.938Z,16.62
2019-02-22T12:42:03.122Z,16.70
2019-02-22T12:44:29.281Z,15.02
2019-02-22T12:46:55.448Z,16.48
2019-02-22T12:49:21.748Z,16.55
2019-02-22T12:51:47.910Z,15.98
2019-02-22T12:54:14.078Z,17.22
2019-02-22T12:56:57.956Z,17.54
2019-02-22T12:59:08.461Z,17.07
2019-02-22T13:01:34.728Z,16.62
2019-02-22T13:04:00.912Z,17.90
2019-02-22T13:06:27.060Z,18.05
2019-02-22T13:08:53.327Z,17.87
2019-02-22T13:11:19.518Z,17.52
2019-02-22T13:13:45.692Z,17.79
2019-02-22T13:16:11.955Z,17.75
2019-02-22T13:18:38.150Z,17.49
2019-02-22T13:21:04.304Z,17.60
2019-02-22T13:23:30.461Z,17.14
2019-02-22T13:25:57.044Z,17.92
2019-02-22T13:28:23.206Z,18.53
2019-02-22T13:30:49.362Z,17.33
2019-02-22T13:33:15.553Z,18.04
2019-02-22T13:35:41.721Z,18.11
2019-02-22T13:38:07.978Z,15.99
2019-02-22T13:40:34.180Z,15.74
2019-02-22T13:43:00.456Z,15.96
2019-02-22T13:45:27.537Z,17.19
2019-02-22T13:47:53.711Z,16.90
2019-02-22T13:50:19.965Z,15.99
2019-02-22T13:52:46.129Z,16.17
2019-02-22T13:55:13.325Z,16.21
2019-02-22T13:57:39.493Z,16.42
2019-02-22T14:00:10.257Z,16.49
2019-02-22T14:02:36.446Z,16.96
2019-02-22T14:05:03.827Z,17.33
2019-02-22T14:07:30.072Z,16.60
2019-02-22T14:09:56.247Z,17.38
2019-02-22T14:12:22.410Z,16.63
2019-02-22T14:14:48.569Z,17.02
2019-02-22T14:17:14.767Z,17.78
2019-02-22T14:19:40.927Z,16.82
2019-02-22T14:22:07.077Z,17.25
2019-02-22T14:24:33.268Z,16.10
2019-02-22T14:26:59.520Z,15.93
2019-02-22T14:29:25.686Z,15.71
2019-02-22T14:31:51.871Z,15.71
2019-02-22T14:34:18.030Z,15.30
2019-02-22T14:36:44.203Z,16.17
2019-02-22T14:39:10.754Z,16.07
2019-02-22T14:41:37.563Z,16.85
2019-02-22T14:44:03.788Z,16.15
2019-02-22T14:46:31.051Z,16.26
2019-02-22T14:48:57.208Z,16.15
2019-02-22T14:51:23.387Z,16.05
2019-02-22T14:53:49.599Z,15.81
2019-02-22T14:56:15.754Z,16.74
2019-02-22T14:58:43.397Z,16.76
2019-02-22T15:01:10.072Z,15.69
2019-02-22T15:03:36.223Z,15.21
2019-02-22T15:06:02.484Z,15.19
2019-02-22T15:08:28.680Z,15.57
2019-02-22T15:10:54.844Z,16.31
2019-02-22T15:13:21.113Z,16.24
2019-02-22T15:16:04.322Z,16.69
2019-02-22T15:18:30.788Z,17.39
2019-02-22T15:20:56.943Z,15.98
2019-02-22T15:23:23.133Z,16.45
2019-02-22T15:25:49.300Z,15.72
2019-02-22T15:28:15.451Z,15.43
2019-02-22T15:30:41.648Z,15.06
2019-02-22T15:33:07.802Z,15.49
2019-02-22T15:35:33.964Z,15.60
2019-02-22T15:38:00.167Z,16.26
2019-02-22T15:40:26.324Z,15.52
2019-02-22T15:42:52.484Z,14.66
2019-02-22T15:45:18.689Z,15.58
2019-02-22T15:47:44.914Z,16.64
2019-02-22T15:50:12.912Z,16.17
2019-02-22T15:52:39.100Z,16.34
2019-02-22T15:55:06.661Z,16.38
2019-02-22T15:57:32.823Z,16.29
2019-02-22T15:59:58.998Z,15.70
2019-02-22T16:02:25.164Z,16.06
2019-02-22T16:04:53.223Z,14.90
2019-02-22T16:07:19.418Z,15.40
2019-02-22T16:09:45.667Z,15.39
2019-02-22T16:12:11.833Z,14.87
2019-02-22T16:14:38.030Z,15.97
2019-02-22T16:17:04.218Z,16.06
2019-02-22T16:19:30.522Z,14.62
2019-02-22T16:21:56.711Z,14.19
2019-02-22T16:24:22.869Z,14.66
2019-02-22T16:26:50.937Z,14.11
2019-02-22T16:29:17.122Z,14.34
2019-02-22T16:31:43.382Z,13.99
2019-02-22T16:34:09.671Z,14.41
2019-02-22T16:36:35.888Z,15.00
2019-02-22T16:39:04.772Z,14.71
2019-02-22T16:41:31.061Z,14.57
2019-02-22T16:43:57.375Z,13.89
2019-02-22T16:46:34.224Z,13.60
2019-02-22T16:48:51.921Z,13.59
2019-02-22T16:51:18.238Z,14.56
2019-02-22T16:53:44.535Z,14.30
2019-02-22T16:56:10.816Z,13.00
2019-02-22T16:58:37.137Z,12.86
2019-02-22T17:01:04.023Z,12.03
2019-02-22T17:03:30.307Z,12.34
2019-02-22T17:05:56.619Z,13.06
2019-02-22T17:08:22.908Z,13.15
2019-02-22T17:10:49.209Z,12.78
2019-02-22T17:13:15.436Z,12.47
2019-02-22T17:15:42.021Z,12.60
2019-02-22T17:18:08.211Z,12.74
2019-02-22T17:20:34.529Z,12.68
2019-02-22T17:23:00.808Z,12.00
2019-02-22T17:25:27.086Z,12.15
2019-02-22T17:27:53.312Z,11.67
2019-02-22T17:30:20.777Z,12.13
2019-02-22T17:32:47.270Z,10.28
2019-02-22T17:35:13.622Z,9.81
2019-02-22T17:37:39.883Z,9.31
2019-02-22T17:40:11.823Z,10.12
2019-02-22T17:42:38.009Z,9.93
2019-02-22T17:45:04.964Z,9.57
2019-02-22T17:47:31.130Z,10.47
2019-02-22T17:49:58.259Z,10.30
2019-02-22T17:52:24.417Z,10.45
2019-02-22T17:54:50.610Z,9.45
2019-02-22T17:57:18.158Z,10.42
2019-02-22T17:59:44.291Z,9.05
2019-02-22T18:02:10.550Z,9.22
2019-02-22T18:04:36.755Z,9.68
2019-02-22T18:07:02.910Z,9.40
2019-02-22T18:09:29.164Z,9.80
2019-02-22T18:11:55.380Z,9.75
2019-02-22T18:14:21.641Z,9.31
2019-02-22T18:16:47.798Z,10.23
2019-02-22T18:19:14.891Z,10.12
2019-02-22T18:21:41.117Z,10.41
2019-02-22T18:24:07.306Z,8.53
2019-02-22T18:26:33.512Z,9.72
2019-02-22T18:28:59.818Z,9.32
2019-02-22T18:31:25.984Z,9.65
2019-02-22T18:33:52.172Z,9.54
2019-02-22T18:36:18.425Z,9.12
2019-02-22T18:38:44.584Z,9.27
2019-02-22T18:41:10.881Z,9.65
2019-02-22T18:43:37.038Z,10.20
2019-02-22T18:46:03.291Z,9.06
2019-02-22T18:48:29.476Z,10.79
2019-02-22T18:50:56.594Z,9.40
2019-02-22T18:53:22.747Z,8.95
2019-02-22T18:55:50.351Z,9.15
2019-02-22T18:58:16.840Z,9.73
2019-02-22T19:00:43.123Z,9.86
2019-02-22T19:03:11.370Z,9.22
2019-02-22T19:05:37.518Z,9.86
2019-02-22T19:08:03.796Z,8.24
2019-02-22T19:10:30.023Z,8.55
2019-02-22T19:12:56.342Z,8.65
2019-02-22T19:15:22.519Z,8.88
2019-02-22T19:17:48.718Z,8.13
2019-02-22T19:20:17.679Z,9.04
2019-02-22T19:22:43.846Z,9.18
2019-02-22T19:25:10.038Z,9.45
2019-02-22T19:27:36.207Z,9.18
2019-02-22T19:30:04.378Z,8.41
2019-02-22T19:32:30.597Z,8.22
2019-02-22T19:34:59.784Z,9.10
2019-02-22T19:37:26.037Z,9.42
2019-02-22T19:39:52.344Z,8.48
2019-02-22T19:42:18.508Z,8.16
2019-02-22T19:44:44.769Z,7.65
2019-02-22T19:47:11.077Z,8.98
2019-02-22T19:49:37.246Z,8.02
2019-02-22T19:52:03.403Z,8.51
2019-02-22T19:54:29.695Z,7.58
2019-02-22T19:56:55.973Z,8.13
2019-02-22T19:59:22.281Z,9.26
2019-02-22T20:01:48.615Z,7.51
2019-02-22T20:04:14.878Z,8.23
2019-02-22T20:06:42.862Z,7.62
2019-02-22T20:09:13.107Z,8.61
2019-02-22T20:11:39.384Z,7.90
2019-02-22T20:14:05.723Z,9.20
2019-02-22T20:16:32.047Z,8.45
2019-02-22T20:18:58.203Z,9.86
2019-02-22T20:21:24.600Z,9.52
2019-02-22T20:23:50.830Z,8.85
2019-02-22T20:26:17.117Z,7.91
2019-02-22T20:28:43.290Z,7.64
2019-02-22T20:31:19.588Z,8.97
2019-02-22T20:33:37.769Z,7.93
2019-02-22T20:36:03.926Z,9.03
2019-02-22T20:38:30.127Z,8.80
2019-02-22T20:40:56.385Z,8.85
2019-02-22T20:43:22.551Z,9.43
2019-02-22T20:45:48.864Z,7.96
2019-02-22T20:48:15.133Z,8.08
2019-02-22T20:50:41.402Z,8.23
2019-02-22T20:53:07.616Z,6.96
2019-02-22T20:55:33.788Z,6.47
2019-02-22T20:57:59.964Z,8.06
2019-02-22T21:00:27.365Z,6.90
2019-02-22T21:02:53.522Z,7.83
2019-02-22T21:05:19.702Z,6.58
2019-02-22T21:07:46.011Z,7.55
2019-02-22T21:10:17.952Z,7.36
2019-02-22T21:12:44.220Z,6.89
2019-02-22T21:15:11.719Z,7.20
2019-02-22T21:17:37.975Z,6.75
2019-02-22T21:20:10.312Z,5.86
2019-02-22T21:22:36.565Z,6.49
2019-02-22T21:25:04.571Z,7.19
2019-02-22T21:27:30.730Z,6.66
2019-02-22T21:29:56.935Z,7.97
2019-02-22T21:32:23.102Z,7.17
2019-02-22T21:34:49.370Z,7.22
2019-02-22T21:37:15.544Z,6.13
2019-02-22T21:39:41.818Z,6.40
2019-02-22T21:42:08.006Z,7.27
2019-02-22T21:44:34.205Z,6.06
2019-02-22T21:47:00.471Z,6.69
2019-02-22T21:49:26.736Z,7.11
2019-02-22T21:51:53.026Z,6.87
2019-02-22T21:54:19.234Z,4.66
2019-02-22T21:56:45.398Z,5.68
2019-02-22T21:59:11.692Z,4.73
2019-02-22T22:01:37.953Z,5.67
2019-02-22T22:04:04.256Z,5.67
2019-02-22T22:06:30.555Z,4.83
2019-02-22T22:08:56.697Z,5.76
2019-02-22T22:11:22.856Z,5.80
2019-02-22T22:13:49.050Z,5.29
2019-02-22T22:16:15.328Z,4.95
2019-02-22T22:18:41.478Z,5.29
2019-02-22T22:21:07.665Z,5.84
2019-02-22T22:23:33.811Z,5.09
2019-02-22T22:25:59.972Z,5.68
2019-02-22T22:28:26.165Z,6.03
2019-02-22T22:30:52.325Z,4.99
2019-02-22T22:33:18.578Z,6.31
2019-02-22T22:35:44.766Z,5.82
2019-02-22T22:38:10.957Z,5.21
2019-02-22T22:40:37.123Z,5.33
2019-02-22T22:43:03.439Z,6.91
2019-02-22T22:45:29.726Z,5.60
2019-02-22T22:47:55.947Z,5.73
2019-02-22T22:50:22.140Z,5.70
2019-02-22T22:52:48.311Z,6.48
2019-02-22T22:55:16.298Z,7.33
2019-02-22T22:57:42.621Z,6.07
2019-02-22T23:00:25.936Z,6.43
2019-02-22T23:02:52.300Z,6.81
2019-02-22T23:05:18.561Z,6.39
2019-02-22T23:07:44.736Z,5.28
2019-02-22T23:10:11.025Z,4.85
2019-02-22T23:12:37.183Z,5.60
2019-02-22T23:15:04.041Z,6.98
2019-02-22T23:17:30.233Z,5.99
2019-02-22T23:19:56.390Z,5.73
2019-02-22T23:22:22.552Z,4.96
2019-02-22T23:24:48.852Z,4.54
2019-02-22T23:27:15.011Z,5.42
2019-02-22T23:29:41.168Z,6.31
2019-02-22T23:32:07.475Z,5.95
2019-02-22T23:34:33.732Z,5.26
2019-02-22T23:36:59.992Z,6.28
2019-02-22T23:39:26.276Z,6.84
2019-02-22T23:41:52.530Z,5.68
2019-02-22T23:44:18.787Z,5.33
2019-02-22T23:46:44.968Z,6.40
2019-02-22T23:49:13.322Z,5.74
2019-02-22T23:51:39.187Z,5.91
2019-02-22T23:54:05.375Z,6.38
2019-02-22T23:56:31.752Z,6.29
2019-02-22T23:58:57.904Z,6.40
